sensor_id;sensor_type;location;lat;lon;timestamp;P1;durP1;ratioP1;P2;durP2;ratioP2
64667;SDS011;51077;42.716;23.344;2022-09-09T00:01:14;6.95;;;3.88;;
64667;SDS011;51077;42.716;23.344;2022-09-09T00:03:49;8.32;;;4.47;;
64667;SDS011;51077;42.716;23.344;2022-09-09T00:06:29;6.00;;;4.53;;
64667;SDS011;51077;42.716;23.344;2022-09-09T00:11:51;6.07;;;4.07;;
64667;SDS011;51077;42.716;23.344;2022-09-09T00:17:58;8.55;;;4.20;;
64667;SDS011;51077;42.716;23.344;2022-09-09T00:20:17;6.63;;;4.90;;
64667;SDS011;51077;42.716;23.344;2022-09-09T00:22:57;8.10;;;4.78;;
64667;SDS011;51077;42.716;23.344;2022-09-09T00:28:20;6.45;;;4.65;;
64667;SDS011;51077;42.716;23.344;2022-09-09T00:30:49;7.43;;;4.25;;
64667;SDS011;51077;42.716;23.344;2022-09-09T00:33:16;7.00;;;5.50;;
64667;SDS011;51077;42.716;23.344;2022-09-09T00:35:48;6.20;;;4.25;;
64667;SDS011;51077;42.716;23.344;2022-09-09T00:38:20;9.02;;;4.70;;
64667;SDS011;51077;42.716;23.344;2022-09-09T00:43:31;6.13;;;5.00;;
64667;SDS011;51077;42.716;23.344;2022-09-09T00:48:57;7.72;;;4.72;;
64667;SDS011;51077;42.716;23.344;2022-09-09T00:56:36;6.32;;;4.72;;
64667;SDS011;51077;42.716;23.344;2022-09-09T01:01:35;6.97;;;4.70;;
64667;SDS011;51077;42.716;23.344;2022-09-09T01:04:01;8.07;;;5.00;;
64667;SDS011;51077;42.716;23.344;2022-09-09T01:12:01;7.18;;;4.95;;
64667;SDS011;51077;42.716;23.344;2022-09-09T01:14:43;8.75;;;5.28;;
64667;SDS011;51077;42.716;23.344;2022-09-09T01:20:14;6.78;;;5.13;;
64667;SDS011;51077;42.716;23.344;2022-09-09T01:25:56;7.70;;;5.25;;
64667;SDS011;51077;42.716;23.344;2022-09-09T01:28:37;7.43;;;5.75;;
64667;SDS011;51077;42.716;23.344;2022-09-09T01:31:04;7.85;;;5.07;;
64667;SDS011;51077;42.716;23.344;2022-09-09T01:33:31;8.15;;;5.47;;
64667;SDS011;51077;42.716;23.344;2022-09-09T01:35:58;10.63;;;5.90;;
64667;SDS011;51077;42.716;23.344;2022-09-09T01:38:25;7.22;;;5.55;;
64667;SDS011;51077;42.716;23.344;2022-09-09T01:40:52;8.63;;;5.85;;
64667;SDS011;51077;42.716;23.344;2022-09-09T01:43:19;6.63;;;5.32;;
64667;SDS011;51077;42.716;23.344;2022-09-09T01:45:46;10.60;;;5.10;;
64667;SDS011;51077;42.716;23.344;2022-09-09T01:48:13;7.65;;;5.72;;
64667;SDS011;51077;42.716;23.344;2022-09-09T01:50:39;6.50;;;5.43;;
64667;SDS011;51077;42.716;23.344;2022-09-09T01:53:04;6.77;;;5.40;;
64667;SDS011;51077;42.716;23.344;2022-09-09T01:55:37;7.57;;;5.72;;
64667;SDS011;51077;42.716;23.344;2022-09-09T02:04:00;9.88;;;5.85;;
64667;SDS011;51077;42.716;23.344;2022-09-09T02:06:39;9.05;;;5.63;;
64667;SDS011;51077;42.716;23.344;2022-09-09T02:09:06;9.27;;;6.03;;
64667;SDS011;51077;42.716;23.344;2022-09-09T02:11:35;7.55;;;5.82;;
64667;SDS011;51077;42.716;23.344;2022-09-09T02:14:22;8.00;;;5.88;;
64667;SDS011;51077;42.716;23.344;2022-09-09T02:16:51;8.07;;;5.80;;
64667;SDS011;51077;42.716;23.344;2022-09-09T02:22:01;8.80;;;6.10;;
64667;SDS011;51077;42.716;23.344;2022-09-09T02:24:32;8.45;;;5.82;;
64667;SDS011;51077;42.716;23.344;2022-09-09T02:27:01;6.75;;;5.75;;
64667;SDS011;51077;42.716;23.344;2022-09-09T02:29:34;6.60;;;5.57;;
64667;SDS011;51077;42.716;23.344;2022-09-09T02:32:04;7.22;;;5.75;;
64667;SDS011;51077;42.716;23.344;2022-09-09T02:34:34;8.07;;;6.22;;
64667;SDS011;51077;42.716;23.344;2022-09-09T02:37:03;7.50;;;6.38;;
64667;SDS011;51077;42.716;23.344;2022-09-09T02:39:31;7.55;;;5.70;;
64667;SDS011;51077;42.716;23.344;2022-09-09T02:41:57;8.37;;;5.93;;
64667;SDS011;51077;42.716;23.344;2022-09-09T02:44:22;7.47;;;5.97;;
64667;SDS011;51077;42.716;23.344;2022-09-09T02:49:18;10.13;;;6.47;;
64667;SDS011;51077;42.716;23.344;2022-09-09T02:54:33;9.52;;;5.70;;
64667;SDS011;51077;42.716;23.344;2022-09-09T02:57:04;8.75;;;5.88;;
64667;SDS011;51077;42.716;23.344;2022-09-09T02:59:34;7.30;;;6.30;;
64667;SDS011;51077;42.716;23.344;2022-09-09T03:01:59;7.30;;;6.03;;
64667;SDS011;51077;42.716;23.344;2022-09-09T03:04:26;10.85;;;6.60;;
64667;SDS011;51077;42.716;23.344;2022-09-09T03:06:51;7.53;;;6.43;;
64667;SDS011;51077;42.716;23.344;2022-09-09T03:09:17;10.90;;;6.80;;
64667;SDS011;51077;42.716;23.344;2022-09-09T03:11:42;7.70;;;6.33;;
64667;SDS011;51077;42.716;23.344;2022-09-09T03:14:07;12.13;;;6.73;;
64667;SDS011;51077;42.716;23.344;2022-09-09T03:16:33;9.47;;;6.53;;
64667;SDS011;51077;42.716;23.344;2022-09-09T03:19:00;8.53;;;6.53;;
64667;SDS011;51077;42.716;23.344;2022-09-09T03:21:26;11.27;;;7.22;;
64667;SDS011;51077;42.716;23.344;2022-09-09T03:23:51;10.30;;;7.33;;
64667;SDS011;51077;42.716;23.344;2022-09-09T03:26:16;10.10;;;6.77;;
64667;SDS011;51077;42.716;23.344;2022-09-09T03:28:42;10.83;;;7.10;;
64667;SDS011;51077;42.716;23.344;2022-09-09T03:31:09;9.15;;;6.93;;
64667;SDS011;51077;42.716;23.344;2022-09-09T03:33:38;11.03;;;7.23;;
64667;SDS011;51077;42.716;23.344;2022-09-09T03:36:04;11.13;;;7.43;;
64667;SDS011;51077;42.716;23.344;2022-09-09T03:38:30;13.27;;;7.85;;
64667;SDS011;51077;42.716;23.344;2022-09-09T03:40:57;10.82;;;6.93;;
64667;SDS011;51077;42.716;23.344;2022-09-09T03:43:26;16.60;;;7.72;;
64667;SDS011;51077;42.716;23.344;2022-09-09T03:45:52;11.77;;;7.13;;
64667;SDS011;51077;42.716;23.344;2022-09-09T03:48:21;10.95;;;7.68;;
64667;SDS011;51077;42.716;23.344;2022-09-09T03:50:48;9.18;;;6.72;;
64667;SDS011;51077;42.716;23.344;2022-09-09T03:53:16;10.52;;;7.00;;
64667;SDS011;51077;42.716;23.344;2022-09-09T03:55:45;9.23;;;6.90;;
64667;SDS011;51077;42.716;23.344;2022-09-09T03:58:12;14.20;;;7.80;;
64667;SDS011;51077;42.716;23.344;2022-09-09T04:00:38;11.85;;;7.28;;
64667;SDS011;51077;42.716;23.344;2022-09-09T04:03:08;11.50;;;6.63;;
64667;SDS011;51077;42.716;23.344;2022-09-09T04:05:36;11.57;;;7.07;;
64667;SDS011;51077;42.716;23.344;2022-09-09T04:08:05;11.80;;;6.60;;
64667;SDS011;51077;42.716;23.344;2022-09-09T04:10:31;10.02;;;7.10;;
64667;SDS011;51077;42.716;23.344;2022-09-09T04:12:57;13.30;;;7.23;;
64667;SDS011;51077;42.716;23.344;2022-09-09T04:15:22;9.20;;;7.43;;
64667;SDS011;51077;42.716;23.344;2022-09-09T04:17:47;18.63;;;8.20;;
64667;SDS011;51077;42.716;23.344;2022-09-09T04:20:13;10.07;;;7.03;;
64667;SDS011;51077;42.716;23.344;2022-09-09T04:22:38;8.60;;;7.47;;
64667;SDS011;51077;42.716;23.344;2022-09-09T04:25:04;12.17;;;7.53;;
64667;SDS011;51077;42.716;23.344;2022-09-09T04:27:31;10.50;;;7.30;;
64667;SDS011;51077;42.716;23.344;2022-09-09T04:29:57;12.57;;;7.53;;
64667;SDS011;51077;42.716;23.344;2022-09-09T04:32:22;16.07;;;7.83;;
64667;SDS011;51077;42.716;23.344;2022-09-09T04:34:48;9.47;;;7.40;;
64667;SDS011;51077;42.716;23.344;2022-09-09T04:37:14;12.60;;;7.50;;
64667;SDS011;51077;42.716;23.344;2022-09-09T04:39:39;12.27;;;7.57;;
64667;SDS011;51077;42.716;23.344;2022-09-09T04:42:05;14.10;;;7.80;;
64667;SDS011;51077;42.716;23.344;2022-09-09T04:44:30;11.73;;;7.67;;
64667;SDS011;51077;42.716;23.344;2022-09-09T04:46:55;11.77;;;7.17;;
64667;SDS011;51077;42.716;23.344;2022-09-09T04:49:21;15.63;;;7.40;;
64667;SDS011;51077;42.716;23.344;2022-09-09T04:51:48;13.53;;;7.00;;
64667;SDS011;51077;42.716;23.344;2022-09-09T04:54:14;8.48;;;6.72;;
64667;SDS011;51077;42.716;23.344;2022-09-09T04:56:40;9.93;;;7.17;;
64667;SDS011;51077;42.716;23.344;2022-09-09T04:59:07;12.13;;;6.75;;
64667;SDS011;51077;42.716;23.344;2022-09-09T05:01:32;10.83;;;7.20;;
64667;SDS011;51077;42.716;23.344;2022-09-09T05:03:59;14.35;;;7.88;;
64667;SDS011;51077;42.716;23.344;2022-09-09T05:06:24;11.83;;;7.63;;
64667;SDS011;51077;42.716;23.344;2022-09-09T05:08:50;12.80;;;7.20;;
64667;SDS011;51077;42.716;23.344;2022-09-09T05:11:20;13.82;;;7.68;;
64667;SDS011;51077;42.716;23.344;2022-09-09T05:13:49;15.10;;;7.78;;
64667;SDS011;51077;42.716;23.344;2022-09-09T05:16:15;13.18;;;7.07;;
64667;SDS011;51077;42.716;23.344;2022-09-09T05:18:42;12.73;;;7.75;;
64667;SDS011;51077;42.716;23.344;2022-09-09T05:21:09;12.48;;;7.60;;
64667;SDS011;51077;42.716;23.344;2022-09-09T05:23:35;18.75;;;7.80;;
64667;SDS011;51077;42.716;23.344;2022-09-09T05:26:01;12.00;;;6.87;;
64667;SDS011;51077;42.716;23.344;2022-09-09T05:28:27;14.75;;;7.65;;
64667;SDS011;51077;42.716;23.344;2022-09-09T05:31:00;13.18;;;7.30;;
64667;SDS011;51077;42.716;23.344;2022-09-09T05:33:33;13.52;;;7.30;;
64667;SDS011;51077;42.716;23.344;2022-09-09T05:36:00;14.18;;;7.32;;
64667;SDS011;51077;42.716;23.344;2022-09-09T05:38:28;23.65;;;7.85;;
64667;SDS011;51077;42.716;23.344;2022-09-09T05:40:54;14.57;;;7.68;;
64667;SDS011;51077;42.716;23.344;2022-09-09T05:43:21;16.02;;;7.30;;
64667;SDS011;51077;42.716;23.344;2022-09-09T05:45:48;12.63;;;7.28;;
64667;SDS011;51077;42.716;23.344;2022-09-09T05:48:27;13.13;;;7.10;;
64667;SDS011;51077;42.716;23.344;2022-09-09T05:50:53;13.23;;;6.47;;
64667;SDS011;51077;42.716;23.344;2022-09-09T05:53:19;10.57;;;6.10;;
64667;SDS011;51077;42.716;23.344;2022-09-09T05:55:45;9.43;;;6.03;;
64667;SDS011;51077;42.716;23.344;2022-09-09T05:58:10;10.10;;;5.67;;
64667;SDS011;51077;42.716;23.344;2022-09-09T06:00:36;9.43;;;6.07;;
64667;SDS011;51077;42.716;23.344;2022-09-09T06:03:03;12.20;;;5.97;;
64667;SDS011;51077;42.716;23.344;2022-09-09T06:05:29;11.48;;;5.72;;
64667;SDS011;51077;42.716;23.344;2022-09-09T06:07:54;8.93;;;6.00;;
64667;SDS011;51077;42.716;23.344;2022-09-09T06:10:20;9.13;;;5.50;;
64667;SDS011;51077;42.716;23.344;2022-09-09T06:12:46;10.25;;;6.10;;
64667;SDS011;51077;42.716;23.344;2022-09-09T06:15:12;9.43;;;5.60;;
64667;SDS011;51077;42.716;23.344;2022-09-09T06:17:37;11.40;;;5.50;;
64667;SDS011;51077;42.716;23.344;2022-09-09T06:20:04;12.30;;;5.35;;
64667;SDS011;51077;42.716;23.344;2022-09-09T06:22:30;8.75;;;5.22;;
64667;SDS011;51077;42.716;23.344;2022-09-09T06:24:56;13.57;;;5.33;;
64667;SDS011;51077;42.716;23.344;2022-09-09T06:27:21;11.87;;;5.47;;
64667;SDS011;51077;42.716;23.344;2022-09-09T06:29:47;10.03;;;5.30;;
64667;SDS011;51077;42.716;23.344;2022-09-09T06:32:13;9.82;;;5.22;;
64667;SDS011;51077;42.716;23.344;2022-09-09T06:34:38;7.00;;;5.53;;
64667;SDS011;51077;42.716;23.344;2022-09-09T06:37:04;9.70;;;5.40;;
64667;SDS011;51077;42.716;23.344;2022-09-09T06:39:31;14.93;;;5.32;;
64667;SDS011;51077;42.716;23.344;2022-09-09T06:41:56;11.77;;;5.23;;
64667;SDS011;51077;42.716;23.344;2022-09-09T06:44:23;7.15;;;4.75;;
64667;SDS011;51077;42.716;23.344;2022-09-09T06:46:51;10.65;;;5.05;;
64667;SDS011;51077;42.716;23.344;2022-09-09T06:49:17;9.07;;;4.47;;
64667;SDS011;51077;42.716;23.344;2022-09-09T06:51:43;8.37;;;4.87;;
64667;SDS011;51077;42.716;23.344;2022-09-09T06:54:09;11.00;;;4.83;;
64667;SDS011;51077;42.716;23.344;2022-09-09T06:56:37;9.68;;;4.18;;
64667;SDS011;51077;42.716;23.344;2022-09-09T06:59:07;11.35;;;4.32;;
64667;SDS011;51077;42.716;23.344;2022-09-09T07:01:38;12.50;;;4.20;;
64667;SDS011;51077;42.716;23.344;2022-09-09T07:04:05;7.10;;;4.47;;
64667;SDS011;51077;42.716;23.344;2022-09-09T07:06:45;11.80;;;4.60;;
64667;SDS011;51077;42.716;23.344;2022-09-09T07:09:12;8.15;;;4.40;;
64667;SDS011;51077;42.716;23.344;2022-09-09T07:11:40;9.88;;;4.35;;
64667;SDS011;51077;42.716;23.344;2022-09-09T07:14:06;9.88;;;4.30;;
64667;SDS011;51077;42.716;23.344;2022-09-09T07:16:33;9.38;;;3.83;;
64667;SDS011;51077;42.716;23.344;2022-09-09T07:19:02;7.47;;;3.20;;
64667;SDS011;51077;42.716;23.344;2022-09-09T07:21:29;7.93;;;3.42;;
64667;SDS011;51077;42.716;23.344;2022-09-09T07:23:55;8.30;;;3.78;;
64667;SDS011;51077;42.716;23.344;2022-09-09T07:26:23;7.63;;;3.65;;
64667;SDS011;51077;42.716;23.344;2022-09-09T07:28:50;4.90;;;3.03;;
64667;SDS011;51077;42.716;23.344;2022-09-09T07:31:26;6.25;;;3.53;;
64667;SDS011;51077;42.716;23.344;2022-09-09T07:33:56;4.63;;;3.20;;
64667;SDS011;51077;42.716;23.344;2022-09-09T07:36:23;9.27;;;3.40;;
64667;SDS011;51077;42.716;23.344;2022-09-09T07:38:54;5.88;;;3.13;;
64667;SDS011;51077;42.716;23.344;2022-09-09T07:43:49;5.72;;;3.00;;
64667;SDS011;51077;42.716;23.344;2022-09-09T07:46:17;4.35;;;2.92;;
64667;SDS011;51077;42.716;23.344;2022-09-09T07:48:47;7.25;;;3.20;;
64667;SDS011;51077;42.716;23.344;2022-09-09T07:51:20;3.75;;;2.80;;
64667;SDS011;51077;42.716;23.344;2022-09-09T07:53:54;9.95;;;3.20;;
64667;SDS011;51077;42.716;23.344;2022-09-09T07:56:25;6.50;;;3.50;;
64667;SDS011;51077;42.716;23.344;2022-09-09T07:58:52;5.22;;;3.03;;
64667;SDS011;51077;42.716;23.344;2022-09-09T08:01:21;8.45;;;3.50;;
64667;SDS011;51077;42.716;23.344;2022-09-09T08:03:51;7.80;;;3.28;;
64667;SDS011;51077;42.716;23.344;2022-09-09T08:06:24;7.63;;;3.30;;
64667;SDS011;51077;42.716;23.344;2022-09-09T08:08:52;8.27;;;3.17;;
64667;SDS011;51077;42.716;23.344;2022-09-09T08:11:18;7.00;;;3.08;;
64667;SDS011;51077;42.716;23.344;2022-09-09T08:13:44;6.25;;;3.40;;
64667;SDS011;51077;42.716;23.344;2022-09-09T08:18:37;8.55;;;3.10;;
64667;SDS011;51077;42.716;23.344;2022-09-09T08:21:06;4.97;;;2.97;;
64667;SDS011;51077;42.716;23.344;2022-09-09T08:23:31;5.88;;;3.25;;
64667;SDS011;51077;42.716;23.344;2022-09-09T08:26:03;7.00;;;2.80;;
64667;SDS011;51077;42.716;23.344;2022-09-09T08:28:34;5.78;;;3.42;;
64667;SDS011;51077;42.716;23.344;2022-09-09T08:34:04;10.20;;;3.20;;
64667;SDS011;51077;42.716;23.344;2022-09-09T08:36:35;7.50;;;3.25;;
64667;SDS011;51077;42.716;23.344;2022-09-09T08:39:05;8.20;;;2.87;;
64667;SDS011;51077;42.716;23.344;2022-09-09T08:46:42;6.53;;;3.20;;
64667;SDS011;51077;42.716;23.344;2022-09-09T08:51:59;10.57;;;3.77;;
64667;SDS011;51077;42.716;23.344;2022-09-09T08:54:26;6.53;;;3.37;;
64667;SDS011;51077;42.716;23.344;2022-09-09T08:56:58;5.13;;;3.10;;
64667;SDS011;51077;42.716;23.344;2022-09-09T08:59:23;5.90;;;3.20;;
64667;SDS011;51077;42.716;23.344;2022-09-09T09:05:06;7.07;;;3.07;;
64667;SDS011;51077;42.716;23.344;2022-09-09T09:12:55;8.87;;;3.20;;
64667;SDS011;51077;42.716;23.344;2022-09-09T09:15:26;4.50;;;3.40;;
64667;SDS011;51077;42.716;23.344;2022-09-09T09:18:02;5.60;;;3.37;;
64667;SDS011;51077;42.716;23.344;2022-09-09T09:23:45;7.87;;;3.60;;
64667;SDS011;51077;42.716;23.344;2022-09-09T09:26:21;7.10;;;3.83;;
64667;SDS011;51077;42.716;23.344;2022-09-09T09:28:55;8.73;;;4.10;;
64667;SDS011;51077;42.716;23.344;2022-09-09T09:31:23;9.30;;;3.83;;
64667;SDS011;51077;42.716;23.344;2022-09-09T09:33:55;7.27;;;3.73;;
64667;SDS011;51077;42.716;23.344;2022-09-09T09:36:39;7.03;;;4.00;;
64667;SDS011;51077;42.716;23.344;2022-09-09T09:39:21;8.37;;;3.80;;
64667;SDS011;51077;42.716;23.344;2022-09-09T09:41:48;8.70;;;3.80;;
64667;SDS011;51077;42.716;23.344;2022-09-09T09:47:05;6.93;;;4.20;;
64667;SDS011;51077;42.716;23.344;2022-09-09T09:49:30;13.07;;;4.03;;
64667;SDS011;51077;42.716;23.344;2022-09-09T09:52:00;8.10;;;4.13;;
64667;SDS011;51077;42.716;23.344;2022-09-09T09:54:31;7.73;;;3.90;;
64667;SDS011;51077;42.716;23.344;2022-09-09T09:59:40;9.15;;;4.32;;
64667;SDS011;51077;42.716;23.344;2022-09-09T10:02:31;8.80;;;4.80;;
64667;SDS011;51077;42.716;23.344;2022-09-09T10:05:03;6.88;;;4.22;;
64667;SDS011;51077;42.716;23.344;2022-09-09T10:07:38;6.35;;;3.83;;
64667;SDS011;51077;42.716;23.344;2022-09-09T10:10:04;8.73;;;4.23;;
64667;SDS011;51077;42.716;23.344;2022-09-09T10:15:15;6.15;;;4.30;;
64667;SDS011;51077;42.716;23.344;2022-09-09T10:36:10;8.10;;;4.85;;
64667;SDS011;51077;42.716;23.344;2022-09-09T10:42:20;9.45;;;4.60;;
64667;SDS011;51077;42.716;23.344;2022-09-09T10:53:00;9.70;;;4.72;;
64667;SDS011;51077;42.716;23.344;2022-09-09T10:55:43;10.48;;;4.80;;
64667;SDS011;51077;42.716;23.344;2022-09-09T10:58:30;8.02;;;4.70;;
64667;SDS011;51077;42.716;23.344;2022-09-09T11:01:03;6.65;;;4.60;;
64667;SDS011;51077;42.716;23.344;2022-09-09T11:03:41;7.15;;;5.40;;
64667;SDS011;51077;42.716;23.344;2022-09-09T11:06:18;11.15;;;5.15;;
64667;SDS011;51077;42.716;23.344;2022-09-09T11:08:46;9.20;;;4.90;;
64667;SDS011;51077;42.716;23.344;2022-09-09T11:13:47;7.93;;;4.70;;
64667;SDS011;51077;42.716;23.344;2022-09-09T11:16:39;7.65;;;4.72;;
64667;SDS011;51077;42.716;23.344;2022-09-09T11:21:49;8.43;;;5.35;;
64667;SDS011;51077;42.716;23.344;2022-09-09T11:27:25;9.70;;;4.88;;
64667;SDS011;51077;42.716;23.344;2022-09-09T11:33:05;10.20;;;5.00;;
64667;SDS011;51077;42.716;23.344;2022-09-09T11:38:26;11.70;;;5.18;;
64667;SDS011;51077;42.716;23.344;2022-09-09T11:40:56;10.35;;;5.03;;
64667;SDS011;51077;42.716;23.344;2022-09-09T11:43:44;11.73;;;4.88;;
64667;SDS011;51077;42.716;23.344;2022-09-09T11:46:16;12.90;;;5.13;;
64667;SDS011;51077;42.716;23.344;2022-09-09T11:48:45;9.75;;;5.40;;
64667;SDS011;51077;42.716;23.344;2022-09-09T11:51:27;7.85;;;4.90;;
64667;SDS011;51077;42.716;23.344;2022-09-09T11:54:29;7.07;;;4.97;;
64667;SDS011;51077;42.716;23.344;2022-09-09T11:56:54;6.63;;;4.70;;
64667;SDS011;51077;42.716;23.344;2022-09-09T11:59:29;6.43;;;5.00;;
64667;SDS011;51077;42.716;23.344;2022-09-09T12:01:57;10.77;;;4.82;;
64667;SDS011;51077;42.716;23.344;2022-09-09T12:04:37;7.57;;;5.20;;
64667;SDS011;51077;42.716;23.344;2022-09-09T12:12:06;9.00;;;4.57;;
64667;SDS011;51077;42.716;23.344;2022-09-09T12:14:37;10.10;;;5.43;;
64667;SDS011;51077;42.716;23.344;2022-09-09T12:17:20;8.80;;;5.10;;
64667;SDS011;51077;42.716;23.344;2022-09-09T12:19:48;9.70;;;4.75;;
64667;SDS011;51077;42.716;23.344;2022-09-09T12:22:47;7.40;;;4.63;;
64667;SDS011;51077;42.716;23.344;2022-09-09T12:28:19;6.82;;;5.18;;
64667;SDS011;51077;42.716;23.344;2022-09-09T12:33:36;11.97;;;5.07;;
64667;SDS011;51077;42.716;23.344;2022-09-09T12:36:09;10.03;;;5.73;;
64667;SDS011;51077;42.716;23.344;2022-09-09T12:38:39;10.33;;;5.20;;
64667;SDS011;51077;42.716;23.344;2022-09-09T12:41:06;9.87;;;5.00;;
64667;SDS011;51077;42.716;23.344;2022-09-09T12:43:44;8.07;;;5.10;;
64667;SDS011;51077;42.716;23.344;2022-09-09T12:46:12;13.47;;;5.17;;
64667;SDS011;51077;42.716;23.344;2022-09-09T12:49:03;8.57;;;5.07;;
64667;SDS011;51077;42.716;23.344;2022-09-09T12:51:30;9.67;;;4.63;;
64667;SDS011;51077;42.716;23.344;2022-09-09T12:54:00;9.77;;;4.97;;
64667;SDS011;51077;42.716;23.344;2022-09-09T12:56:27;8.88;;;4.65;;
64667;SDS011;51077;42.716;23.344;2022-09-09T12:58:56;10.93;;;5.60;;
64667;SDS011;51077;42.716;23.344;2022-09-09T13:03:53;9.03;;;5.47;;
64667;SDS011;51077;42.716;23.344;2022-09-09T13:06:21;15.53;;;5.30;;
64667;SDS011;51077;42.716;23.344;2022-09-09T13:08:57;9.67;;;4.90;;
64667;SDS011;51077;42.716;23.344;2022-09-09T13:11:30;10.87;;;5.17;;
64667;SDS011;51077;42.716;23.344;2022-09-09T13:14:01;7.13;;;5.13;;
64667;SDS011;51077;42.716;23.344;2022-09-09T13:16:32;9.87;;;4.90;;
64667;SDS011;51077;42.716;23.344;2022-09-09T13:19:00;9.67;;;5.10;;
64667;SDS011;51077;42.716;23.344;2022-09-09T13:21:38;8.67;;;5.03;;
64667;SDS011;51077;42.716;23.344;2022-09-09T13:24:22;10.20;;;4.93;;
64667;SDS011;51077;42.716;23.344;2022-09-09T13:26:55;9.23;;;5.40;;
64667;SDS011;51077;42.716;23.344;2022-09-09T13:29:50;6.03;;;4.10;;
64667;SDS011;51077;42.716;23.344;2022-09-09T13:32:20;10.02;;;4.70;;
64667;SDS011;51077;42.716;23.344;2022-09-09T13:34:50;8.77;;;4.67;;
64667;SDS011;51077;42.716;23.344;2022-09-09T13:39:55;6.10;;;4.07;;
64667;SDS011;51077;42.716;23.344;2022-09-09T13:42:24;11.83;;;4.60;;
64667;SDS011;51077;42.716;23.344;2022-09-09T13:44:51;10.85;;;4.95;;
64667;SDS011;51077;42.716;23.344;2022-09-09T13:47:18;10.13;;;4.68;;
64667;SDS011;51077;42.716;23.344;2022-09-09T13:49:45;11.00;;;5.00;;
64667;SDS011;51077;42.716;23.344;2022-09-09T13:52:12;7.70;;;4.23;;
64667;SDS011;51077;42.716;23.344;2022-09-09T13:54:39;8.35;;;4.70;;
64667;SDS011;51077;42.716;23.344;2022-09-09T13:57:11;7.95;;;4.88;;
64667;SDS011;51077;42.716;23.344;2022-09-09T13:59:40;10.45;;;5.22;;
64667;SDS011;51077;42.716;23.344;2022-09-09T14:02:06;7.97;;;4.60;;
64667;SDS011;51077;42.716;23.344;2022-09-09T14:04:32;9.75;;;5.38;;
64667;SDS011;51077;42.716;23.344;2022-09-09T14:06:59;9.90;;;4.90;;
64667;SDS011;51077;42.716;23.344;2022-09-09T14:09:25;9.47;;;5.17;;
64667;SDS011;51077;42.716;23.344;2022-09-09T14:11:51;9.40;;;5.27;;
64667;SDS011;51077;42.716;23.344;2022-09-09T14:14:16;6.87;;;4.57;;
64667;SDS011;51077;42.716;23.344;2022-09-09T14:16:41;10.37;;;4.83;;
64667;SDS011;51077;42.716;23.344;2022-09-09T14:19:08;10.77;;;5.10;;
64667;SDS011;51077;42.716;23.344;2022-09-09T14:21:34;7.82;;;4.68;;
64667;SDS011;51077;42.716;23.344;2022-09-09T14:23:59;8.57;;;4.70;;
64667;SDS011;51077;42.716;23.344;2022-09-09T14:26:25;9.03;;;4.97;;
64667;SDS011;51077;42.716;23.344;2022-09-09T14:28:51;8.43;;;5.03;;
64667;SDS011;51077;42.716;23.344;2022-09-09T14:31:17;7.07;;;4.80;;
64667;SDS011;51077;42.716;23.344;2022-09-09T14:33:43;12.93;;;5.43;;
64667;SDS011;51077;42.716;23.344;2022-09-09T14:36:09;13.98;;;5.32;;
64667;SDS011;51077;42.716;23.344;2022-09-09T14:38:36;8.13;;;5.70;;
64667;SDS011;51077;42.716;23.344;2022-09-09T14:41:07;6.70;;;4.72;;
64667;SDS011;51077;42.716;23.344;2022-09-09T14:43:35;11.98;;;5.22;;
64667;SDS011;51077;42.716;23.344;2022-09-09T14:46:06;12.32;;;3.83;;
64667;SDS011;51077;42.716;23.344;2022-09-09T14:48:33;7.80;;;3.60;;
64667;SDS011;51077;42.716;23.344;2022-09-09T14:53:31;12.25;;;4.22;;
64667;SDS011;51077;42.716;23.344;2022-09-09T14:56:07;17.77;;;5.00;;
64667;SDS011;51077;42.716;23.344;2022-09-09T14:58:37;12.57;;;4.57;;
64667;SDS011;51077;42.716;23.344;2022-09-09T15:01:07;16.20;;;5.00;;
64667;SDS011;51077;42.716;23.344;2022-09-09T15:03:35;10.25;;;4.40;;
64667;SDS011;51077;42.716;23.344;2022-09-09T15:06:05;8.85;;;4.47;;
64667;SDS011;51077;42.716;23.344;2022-09-09T15:08:33;7.63;;;4.47;;
64667;SDS011;51077;42.716;23.344;2022-09-09T15:11:00;14.20;;;5.35;;
64667;SDS011;51077;42.716;23.344;2022-09-09T15:13:27;10.35;;;5.13;;
64667;SDS011;51077;42.716;23.344;2022-09-09T15:15:53;7.80;;;4.70;;
64667;SDS011;51077;42.716;23.344;2022-09-09T15:18:19;8.07;;;4.53;;
64667;SDS011;51077;42.716;23.344;2022-09-09T15:20:45;6.57;;;4.93;;
64667;SDS011;51077;42.716;23.344;2022-09-09T15:23:11;9.73;;;4.90;;
64667;SDS011;51077;42.716;23.344;2022-09-09T15:25:37;10.00;;;5.07;;
64667;SDS011;51077;42.716;23.344;2022-09-09T15:28:03;9.87;;;5.50;;
64667;SDS011;51077;42.716;23.344;2022-09-09T15:30:28;9.83;;;4.90;;
64667;SDS011;51077;42.716;23.344;2022-09-09T15:32:54;12.27;;;4.83;;
64667;SDS011;51077;42.716;23.344;2022-09-09T15:35:19;9.80;;;5.40;;
64667;SDS011;51077;42.716;23.344;2022-09-09T15:37:45;8.43;;;4.63;;
64667;SDS011;51077;42.716;23.344;2022-09-09T15:40:10;12.23;;;5.13;;
64667;SDS011;51077;42.716;23.344;2022-09-09T15:42:36;14.00;;;4.63;;
64667;SDS011;51077;42.716;23.344;2022-09-09T15:45:02;10.17;;;4.97;;
64667;SDS011;51077;42.716;23.344;2022-09-09T15:47:29;9.65;;;4.65;;
64667;SDS011;51077;42.716;23.344;2022-09-09T15:49:55;10.40;;;4.60;;
64667;SDS011;51077;42.716;23.344;2022-09-09T15:52:20;8.67;;;4.73;;
64667;SDS011;51077;42.716;23.344;2022-09-09T15:54:46;8.60;;;4.90;;
64667;SDS011;51077;42.716;23.344;2022-09-09T15:57:12;8.90;;;4.30;;
64667;SDS011;51077;42.716;23.344;2022-09-09T15:59:38;9.15;;;4.90;;
64667;SDS011;51077;42.716;23.344;2022-09-09T16:02:05;9.07;;;4.00;;
64667;SDS011;51077;42.716;23.344;2022-09-09T16:04:31;9.35;;;4.80;;
64667;SDS011;51077;42.716;23.344;2022-09-09T16:07:00;9.40;;;4.68;;
64667;SDS011;51077;42.716;23.344;2022-09-09T16:09:29;13.43;;;4.38;;
64667;SDS011;51077;42.716;23.344;2022-09-09T16:11:59;9.73;;;4.68;;
64667;SDS011;51077;42.716;23.344;2022-09-09T16:14:26;11.52;;;4.85;;
64667;SDS011;51077;42.716;23.344;2022-09-09T16:16:52;8.48;;;4.68;;
64667;SDS011;51077;42.716;23.344;2022-09-09T16:19:18;11.20;;;4.83;;
64667;SDS011;51077;42.716;23.344;2022-09-09T16:21:44;12.45;;;5.43;;
64667;SDS011;51077;42.716;23.344;2022-09-09T16:24:12;9.18;;;5.50;;
64667;SDS011;51077;42.716;23.344;2022-09-09T16:26:41;13.50;;;5.25;;
64667;SDS011;51077;42.716;23.344;2022-09-09T16:29:10;12.38;;;5.30;;
64667;SDS011;51077;42.716;23.344;2022-09-09T16:31:36;12.70;;;6.13;;
64667;SDS011;51077;42.716;23.344;2022-09-09T16:34:02;13.45;;;7.57;;
64667;SDS011;51077;42.716;23.344;2022-09-09T16:36:29;14.70;;;5.70;;
64667;SDS011;51077;42.716;23.344;2022-09-09T16:38:56;9.13;;;5.88;;
64667;SDS011;51077;42.716;23.344;2022-09-09T16:41:24;9.85;;;6.10;;
64667;SDS011;51077;42.716;23.344;2022-09-09T16:44:01;14.35;;;6.75;;
64667;SDS011;51077;42.716;23.344;2022-09-09T16:46:29;9.95;;;5.38;;
64667;SDS011;51077;42.716;23.344;2022-09-09T16:48:57;11.30;;;5.53;;
64667;SDS011;51077;42.716;23.344;2022-09-09T16:51:25;15.82;;;6.22;;
64667;SDS011;51077;42.716;23.344;2022-09-09T16:53:53;11.18;;;6.13;;
64667;SDS011;51077;42.716;23.344;2022-09-09T16:56:22;10.02;;;5.82;;
64667;SDS011;51077;42.716;23.344;2022-09-09T16:58:54;12.88;;;5.70;;
64667;SDS011;51077;42.716;23.344;2022-09-09T17:01:21;10.68;;;5.63;;
64667;SDS011;51077;42.716;23.344;2022-09-09T17:04:01;9.98;;;5.25;;
64667;SDS011;51077;42.716;23.344;2022-09-09T17:06:31;11.40;;;6.85;;